sensor_id;sensor_type;location;lat;lon;timestamp;P1;durP1;ratioP1;P2;durP2;ratioP2
1026;SDS011;502;48.746;9.214;2023-02-28T00:00:05;4.23;;;2.80;;
1026;SDS011;502;48.746;9.214;2023-02-28T00:02:35;2.53;;;2.00;;
1026;SDS011;502;48.746;9.214;2023-02-28T00:05:02;3.17;;;2.50;;
1026;SDS011;502;48.746;9.214;2023-02-28T00:07:29;4.30;;;2.93;;
1026;SDS011;502;48.746;9.214;2023-02-28T00:09:56;3.20;;;2.90;;
1026;SDS011;502;48.746;9.214;2023-02-28T00:12:24;4.10;;;2.83;;
1026;SDS011;502;48.746;9.214;2023-02-28T00:14:51;3.50;;;2.70;;
1026;SDS011;502;48.746;9.214;2023-02-28T00:17:18;3.70;;;2.63;;
1026;SDS011;502;48.746;9.214;2023-02-28T00:19:46;2.70;;;2.30;;
1026;SDS011;502;48.746;9.214;2023-02-28T00:22:14;6.43;;;2.73;;
1026;SDS011;502;48.746;9.214;2023-02-28T00:24:40;5.57;;;3.17;;
1026;SDS011;502;48.746;9.214;2023-02-28T00:27:07;4.07;;;2.90;;
1026;SDS011;502;48.746;9.214;2023-02-28T00:29:35;4.20;;;2.90;;
1026;SDS011;502;48.746;9.214;2023-02-28T00:32:03;3.60;;;2.83;;
1026;SDS011;502;48.746;9.214;2023-02-28T00:34:30;3.60;;;3.30;;
1026;SDS011;502;48.746;9.214;2023-02-28T00:37:02;2.90;;;2.27;;
1026;SDS011;502;48.746;9.214;2023-02-28T00:39:32;2.37;;;2.00;;
1026;SDS011;502;48.746;9.214;2023-02-28T00:42:00;4.30;;;3.30;;
1026;SDS011;502;48.746;9.214;2023-02-28T00:44:27;3.93;;;2.67;;
1026;SDS011;502;48.746;9.214;2023-02-28T00:46:55;3.30;;;2.70;;
1026;SDS011;502;48.746;9.214;2023-02-28T00:49:23;4.37;;;3.27;;
1026;SDS011;502;48.746;9.214;2023-02-28T00:51:50;3.43;;;2.80;;
1026;SDS011;502;48.746;9.214;2023-02-28T00:54:18;5.50;;;3.43;;
1026;SDS011;502;48.746;9.214;2023-02-28T00:56:46;3.80;;;2.40;;
1026;SDS011;502;48.746;9.214;2023-02-28T00:59:13;3.47;;;2.67;;
1026;SDS011;502;48.746;9.214;2023-02-28T01:01:40;2.60;;;2.17;;
1026;SDS011;502;48.746;9.214;2023-02-28T01:04:09;4.13;;;3.03;;
1026;SDS011;502;48.746;9.214;2023-02-28T01:06:35;3.07;;;2.77;;
1026;SDS011;502;48.746;9.214;2023-02-28T01:09:02;3.90;;;3.33;;
1026;SDS011;502;48.746;9.214;2023-02-28T01:11:30;3.53;;;2.93;;
1026;SDS011;502;48.746;9.214;2023-02-28T01:13:57;3.53;;;2.57;;
1026;SDS011;502;48.746;9.214;2023-02-28T01:16:24;4.40;;;3.30;;
1026;SDS011;502;48.746;9.214;2023-02-28T01:18:51;3.97;;;3.27;;
1026;SDS011;502;48.746;9.214;2023-02-28T01:21:19;3.27;;;2.37;;
1026;SDS011;502;48.746;9.214;2023-02-28T01:23:47;5.03;;;3.50;;
1026;SDS011;502;48.746;9.214;2023-02-28T01:26:14;4.10;;;3.10;;
1026;SDS011;502;48.746;9.214;2023-02-28T01:28:42;4.30;;;3.70;;
1026;SDS011;502;48.746;9.214;2023-02-28T01:31:10;5.03;;;3.57;;
1026;SDS011;502;48.746;9.214;2023-02-28T01:33:37;4.20;;;2.87;;
1026;SDS011;502;48.746;9.214;2023-02-28T01:36:05;3.50;;;3.10;;
1026;SDS011;502;48.746;9.214;2023-02-28T01:38:36;3.83;;;2.70;;
1026;SDS011;502;48.746;9.214;2023-02-28T01:41:03;4.53;;;3.13;;
1026;SDS011;502;48.746;9.214;2023-02-28T01:43:32;3.00;;;2.70;;
1026;SDS011;502;48.746;9.214;2023-02-28T01:46:19;4.20;;;3.13;;
1026;SDS011;502;48.746;9.214;2023-02-28T01:48:46;3.37;;;2.53;;
1026;SDS011;502;48.746;9.214;2023-02-28T01:51:17;3.90;;;3.50;;
1026;SDS011;502;48.746;9.214;2023-02-28T01:53:48;2.87;;;2.40;;
1026;SDS011;502;48.746;9.214;2023-02-28T01:56:19;5.20;;;3.70;;
1026;SDS011;502;48.746;9.214;2023-02-28T01:58:48;3.97;;;3.30;;
1026;SDS011;502;48.746;9.214;2023-02-28T02:01:15;6.37;;;3.17;;
1026;SDS011;502;48.746;9.214;2023-02-28T02:03:46;5.83;;;3.53;;
1026;SDS011;502;48.746;9.214;2023-02-28T02:06:20;5.47;;;3.33;;
1026;SDS011;502;48.746;9.214;2023-02-28T02:08:49;3.97;;;3.43;;
1026;SDS011;502;48.746;9.214;2023-02-28T02:11:18;4.73;;;3.77;;
1026;SDS011;502;48.746;9.214;2023-02-28T02:13:53;4.80;;;3.77;;
1026;SDS011;502;48.746;9.214;2023-02-28T02:16:31;6.77;;;3.40;;
1026;SDS011;502;48.746;9.214;2023-02-28T02:19:06;5.50;;;3.80;;
1026;SDS011;502;48.746;9.214;2023-02-28T02:22:00;4.80;;;3.63;;
1026;SDS011;502;48.746;9.214;2023-02-28T02:25:06;6.07;;;3.13;;
1026;SDS011;502;48.746;9.214;2023-02-28T02:27:40;4.33;;;3.77;;
1026;SDS011;502;48.746;9.214;2023-02-28T02:33:19;4.17;;;3.77;;
1026;SDS011;502;48.746;9.214;2023-02-28T02:35:57;4.13;;;3.40;;
1026;SDS011;502;48.746;9.214;2023-02-28T02:38:31;5.60;;;3.83;;
1026;SDS011;502;48.746;9.214;2023-02-28T02:41:03;5.70;;;3.40;;
1026;SDS011;502;48.746;9.214;2023-02-28T02:43:34;5.10;;;3.67;;
1026;SDS011;502;48.746;9.214;2023-02-28T02:46:03;5.23;;;3.80;;
1026;SDS011;502;48.746;9.214;2023-02-28T02:48:31;3.53;;;3.07;;
1026;SDS011;502;48.746;9.214;2023-02-28T02:51:03;4.17;;;3.30;;
1026;SDS011;502;48.746;9.214;2023-02-28T02:53:40;5.83;;;3.60;;
1026;SDS011;502;48.746;9.214;2023-02-28T02:56:08;4.13;;;3.73;;
1026;SDS011;502;48.746;9.214;2023-02-28T02:58:37;4.50;;;3.47;;
1026;SDS011;502;48.746;9.214;2023-02-28T03:01:07;3.20;;;2.80;;
1026;SDS011;502;48.746;9.214;2023-02-28T03:03:35;4.73;;;3.73;;
1026;SDS011;502;48.746;9.214;2023-02-28T03:06:04;5.27;;;3.67;;
1026;SDS011;502;48.746;9.214;2023-02-28T03:08:33;4.73;;;4.00;;
1026;SDS011;502;48.746;9.214;2023-02-28T03:11:01;4.30;;;3.40;;
1026;SDS011;502;48.746;9.214;2023-02-28T03:13:42;5.90;;;4.17;;
1026;SDS011;502;48.746;9.214;2023-02-28T03:16:28;6.63;;;4.93;;
1026;SDS011;502;48.746;9.214;2023-02-28T03:19:00;5.37;;;4.40;;
1026;SDS011;502;48.746;9.214;2023-02-28T03:21:34;5.57;;;4.73;;
1026;SDS011;502;48.746;9.214;2023-02-28T03:24:05;4.20;;;3.30;;
1026;SDS011;502;48.746;9.214;2023-02-28T03:26:33;5.30;;;3.70;;
1026;SDS011;502;48.746;9.214;2023-02-28T03:29:02;6.10;;;4.13;;
1026;SDS011;502;48.746;9.214;2023-02-28T03:31:32;5.27;;;4.33;;
1026;SDS011;502;48.746;9.214;2023-02-28T03:34:03;5.00;;;4.23;;
1026;SDS011;502;48.746;9.214;2023-02-28T03:36:34;6.17;;;4.40;;
1026;SDS011;502;48.746;9.214;2023-02-28T03:39:09;5.60;;;4.10;;
1026;SDS011;502;48.746;9.214;2023-02-28T03:41:41;4.60;;;3.70;;
1026;SDS011;502;48.746;9.214;2023-02-28T03:44:10;6.13;;;4.40;;
1026;SDS011;502;48.746;9.214;2023-02-28T03:46:41;6.20;;;4.60;;
1026;SDS011;502;48.746;9.214;2023-02-28T03:49:13;5.93;;;4.30;;
1026;SDS011;502;48.746;9.214;2023-02-28T03:51:45;5.80;;;4.30;;
1026;SDS011;502;48.746;9.214;2023-02-28T03:54:13;5.50;;;4.07;;
1026;SDS011;502;48.746;9.214;2023-02-28T03:56:45;5.37;;;3.93;;
1026;SDS011;502;48.746;9.214;2023-02-28T03:59:15;5.07;;;3.57;;
1026;SDS011;502;48.746;9.214;2023-02-28T04:01:44;5.17;;;3.93;;
1026;SDS011;502;48.746;9.214;2023-02-28T04:04:12;5.97;;;4.37;;
1026;SDS011;502;48.746;9.214;2023-02-28T04:06:39;6.60;;;4.67;;
1026;SDS011;502;48.746;9.214;2023-02-28T04:09:08;5.27;;;4.27;;
1026;SDS011;502;48.746;9.214;2023-02-28T04:11:37;6.37;;;4.50;;
1026;SDS011;502;48.746;9.214;2023-02-28T04:14:05;6.60;;;4.67;;
1026;SDS011;502;48.746;9.214;2023-02-28T04:16:33;5.47;;;4.50;;
1026;SDS011;502;48.746;9.214;2023-02-28T04:19:01;6.60;;;4.43;;
1026;SDS011;502;48.746;9.214;2023-02-28T04:21:28;6.50;;;4.13;;
1026;SDS011;502;48.746;9.214;2023-02-28T04:23:55;5.10;;;3.63;;
1026;SDS011;502;48.746;9.214;2023-02-28T04:26:28;7.53;;;4.60;;
1026;SDS011;502;48.746;9.214;2023-02-28T04:28:56;7.63;;;4.83;;
1026;SDS011;502;48.746;9.214;2023-02-28T04:31:22;6.40;;;4.47;;
1026;SDS011;502;48.746;9.214;2023-02-28T04:33:49;5.83;;;4.77;;
1026;SDS011;502;48.746;9.214;2023-02-28T04:36:16;6.17;;;4.87;;
1026;SDS011;502;48.746;9.214;2023-02-28T04:38:44;6.90;;;4.87;;
1026;SDS011;502;48.746;9.214;2023-02-28T04:41:11;6.60;;;5.00;;
1026;SDS011;502;48.746;9.214;2023-02-28T04:43:39;6.03;;;3.87;;
1026;SDS011;502;48.746;9.214;2023-02-28T04:46:06;6.00;;;4.70;;
1026;SDS011;502;48.746;9.214;2023-02-28T04:48:34;7.00;;;4.83;;
1026;SDS011;502;48.746;9.214;2023-02-28T04:51:02;5.50;;;4.00;;
1026;SDS011;502;48.746;9.214;2023-02-28T04:53:30;5.40;;;4.47;;
1026;SDS011;502;48.746;9.214;2023-02-28T04:55:57;5.17;;;4.30;;
1026;SDS011;502;48.746;9.214;2023-02-28T04:58:25;5.60;;;3.67;;
1026;SDS011;502;48.746;9.214;2023-02-28T05:00:53;5.53;;;4.50;;
1026;SDS011;502;48.746;9.214;2023-02-28T05:03:20;7.77;;;5.33;;
1026;SDS011;502;48.746;9.214;2023-02-28T05:05:47;7.90;;;4.50;;
1026;SDS011;502;48.746;9.214;2023-02-28T05:08:14;6.53;;;4.30;;
1026;SDS011;502;48.746;9.214;2023-02-28T05:10:41;6.80;;;4.73;;
1026;SDS011;502;48.746;9.214;2023-02-28T05:13:09;6.03;;;4.80;;
1026;SDS011;502;48.746;9.214;2023-02-28T05:15:37;4.97;;;3.87;;
1026;SDS011;502;48.746;9.214;2023-02-28T05:18:05;9.07;;;5.17;;
1026;SDS011;502;48.746;9.214;2023-02-28T05:20:32;5.63;;;4.50;;
1026;SDS011;502;48.746;9.214;2023-02-28T05:22:58;7.40;;;4.87;;
1026;SDS011;502;48.746;9.214;2023-02-28T05:25:26;6.60;;;4.50;;
1026;SDS011;502;48.746;9.214;2023-02-28T05:27:52;5.20;;;4.30;;
1026;SDS011;502;48.746;9.214;2023-02-28T05:30:19;7.13;;;5.30;;
1026;SDS011;502;48.746;9.214;2023-02-28T05:32:49;6.93;;;4.73;;
1026;SDS011;502;48.746;9.214;2023-02-28T05:35:18;6.83;;;4.50;;
1026;SDS011;502;48.746;9.214;2023-02-28T05:37:45;8.60;;;5.50;;
1026;SDS011;502;48.746;9.214;2023-02-28T05:40:12;8.00;;;5.23;;
1026;SDS011;502;48.746;9.214;2023-02-28T05:42:40;8.60;;;5.43;;
1026;SDS011;502;48.746;9.214;2023-02-28T05:45:07;7.50;;;5.33;;
1026;SDS011;502;48.746;9.214;2023-02-28T05:47:34;7.20;;;4.30;;
1026;SDS011;502;48.746;9.214;2023-02-28T05:50:01;9.00;;;4.80;;
1026;SDS011;502;48.746;9.214;2023-02-28T05:52:29;4.83;;;4.33;;
1026;SDS011;502;48.746;9.214;2023-02-28T05:54:56;9.07;;;5.63;;
1026;SDS011;502;48.746;9.214;2023-02-28T05:57:23;7.97;;;5.73;;
1026;SDS011;502;48.746;9.214;2023-02-28T05:59:49;8.27;;;5.50;;
1026;SDS011;502;48.746;9.214;2023-02-28T06:02:20;6.73;;;5.60;;
1026;SDS011;502;48.746;9.214;2023-02-28T06:04:49;6.73;;;5.43;;
1026;SDS011;502;48.746;9.214;2023-02-28T06:07:16;6.87;;;5.20;;
1026;SDS011;502;48.746;9.214;2023-02-28T06:09:44;8.23;;;4.83;;
1026;SDS011;502;48.746;9.214;2023-02-28T06:12:11;7.30;;;5.70;;
1026;SDS011;502;48.746;9.214;2023-02-28T06:14:38;8.67;;;6.07;;
1026;SDS011;502;48.746;9.214;2023-02-28T06:17:04;6.60;;;4.40;;
1026;SDS011;502;48.746;9.214;2023-02-28T06:19:31;7.13;;;5.37;;
1026;SDS011;502;48.746;9.214;2023-02-28T06:21:58;6.17;;;4.97;;
1026;SDS011;502;48.746;9.214;2023-02-28T06:24:26;9.37;;;5.80;;
1026;SDS011;502;48.746;9.214;2023-02-28T06:26:55;4.53;;;3.43;;
1026;SDS011;502;48.746;9.214;2023-02-28T06:29:24;9.13;;;5.60;;
1026;SDS011;502;48.746;9.214;2023-02-28T06:31:50;9.33;;;5.77;;
1026;SDS011;502;48.746;9.214;2023-02-28T06:34:17;9.67;;;6.37;;
1026;SDS011;502;48.746;9.214;2023-02-28T06:36:44;7.93;;;5.83;;
1026;SDS011;502;48.746;9.214;2023-02-28T06:39:11;7.93;;;5.30;;
1026;SDS011;502;48.746;9.214;2023-02-28T06:41:37;11.50;;;6.47;;
1026;SDS011;502;48.746;9.214;2023-02-28T06:44:08;8.27;;;4.87;;
1026;SDS011;502;48.746;9.214;2023-02-28T06:46:38;7.73;;;5.83;;
1026;SDS011;502;48.746;9.214;2023-02-28T06:49:05;8.13;;;6.00;;
1026;SDS011;502;48.746;9.214;2023-02-28T06:51:34;10.87;;;6.33;;
1026;SDS011;502;48.746;9.214;2023-02-28T06:54:01;8.50;;;6.53;;
1026;SDS011;502;48.746;9.214;2023-02-28T06:56:28;9.63;;;6.40;;
1026;SDS011;502;48.746;9.214;2023-02-28T06:58:54;9.77;;;6.60;;
1026;SDS011;502;48.746;9.214;2023-02-28T07:01:23;5.53;;;4.17;;
1026;SDS011;502;48.746;9.214;2023-02-28T07:03:50;8.27;;;5.83;;
1026;SDS011;502;48.746;9.214;2023-02-28T07:06:17;5.70;;;3.70;;
1026;SDS011;502;48.746;9.214;2023-02-28T07:08:44;7.87;;;6.20;;
1026;SDS011;502;48.746;9.214;2023-02-28T07:11:10;8.23;;;6.13;;
1026;SDS011;502;48.746;9.214;2023-02-28T07:13:37;9.77;;;6.70;;
1026;SDS011;502;48.746;9.214;2023-02-28T07:16:04;6.97;;;5.40;;
1026;SDS011;502;48.746;9.214;2023-02-28T07:18:35;10.40;;;5.50;;
1026;SDS011;502;48.746;9.214;2023-02-28T07:21:03;9.13;;;5.60;;
1026;SDS011;502;48.746;9.214;2023-02-28T07:23:30;10.00;;;6.47;;
1026;SDS011;502;48.746;9.214;2023-02-28T07:25:56;11.27;;;6.00;;
1026;SDS011;502;48.746;9.214;2023-02-28T07:28:23;7.87;;;4.67;;
1026;SDS011;502;48.746;9.214;2023-02-28T07:30:50;9.17;;;6.23;;
1026;SDS011;502;48.746;9.214;2023-02-28T07:33:17;5.33;;;4.23;;
1026;SDS011;502;48.746;9.214;2023-02-28T07:35:45;9.83;;;7.17;;
1026;SDS011;502;48.746;9.214;2023-02-28T07:38:11;10.73;;;7.33;;
1026;SDS011;502;48.746;9.214;2023-02-28T07:40:38;7.00;;;6.20;;
1026;SDS011;502;48.746;9.214;2023-02-28T07:43:05;10.73;;;5.80;;
1026;SDS011;502;48.746;9.214;2023-02-28T07:45:32;9.60;;;6.90;;
1026;SDS011;502;48.746;9.214;2023-02-28T07:48:00;10.23;;;6.57;;
1026;SDS011;502;48.746;9.214;2023-02-28T07:50:27;9.10;;;6.43;;
1026;SDS011;502;48.746;9.214;2023-02-28T07:52:57;9.77;;;6.87;;
1026;SDS011;502;48.746;9.214;2023-02-28T07:55:23;8.60;;;6.77;;
1026;SDS011;502;48.746;9.214;2023-02-28T07:57:50;10.30;;;6.80;;
1026;SDS011;502;48.746;9.214;2023-02-28T08:00:17;13.57;;;6.60;;
1026;SDS011;502;48.746;9.214;2023-02-28T08:02:44;11.17;;;7.93;;
1026;SDS011;502;48.746;9.214;2023-02-28T08:05:11;9.70;;;6.73;;
1026;SDS011;502;48.746;9.214;2023-02-28T08:07:37;9.60;;;7.00;;
1026;SDS011;502;48.746;9.214;2023-02-28T08:10:06;9.20;;;7.17;;
1026;SDS011;502;48.746;9.214;2023-02-28T08:12:35;10.60;;;6.77;;
1026;SDS011;502;48.746;9.214;2023-02-28T08:15:01;11.13;;;6.67;;
1026;SDS011;502;48.746;9.214;2023-02-28T08:17:28;11.00;;;6.60;;
1026;SDS011;502;48.746;9.214;2023-02-28T08:19:55;5.40;;;4.60;;
1026;SDS011;502;48.746;9.214;2023-02-28T08:22:22;8.40;;;6.07;;
1026;SDS011;502;48.746;9.214;2023-02-28T08:24:48;6.80;;;5.57;;
1026;SDS011;502;48.746;9.214;2023-02-28T08:27:16;7.97;;;6.67;;
1026;SDS011;502;48.746;9.214;2023-02-28T08:29:43;9.67;;;6.97;;
1026;SDS011;502;48.746;9.214;2023-02-28T08:32:10;10.77;;;7.00;;
1026;SDS011;502;48.746;9.214;2023-02-28T08:34:38;11.30;;;7.70;;
1026;SDS011;502;48.746;9.214;2023-02-28T08:37:05;12.10;;;7.60;;
1026;SDS011;502;48.746;9.214;2023-02-28T08:39:33;9.90;;;6.77;;
1026;SDS011;502;48.746;9.214;2023-02-28T08:42:00;9.30;;;7.10;;
1026;SDS011;502;48.746;9.214;2023-02-28T08:44:28;8.93;;;7.67;;
1026;SDS011;502;48.746;9.214;2023-02-28T08:46:56;8.73;;;6.13;;
1026;SDS011;502;48.746;9.214;2023-02-28T08:49:23;10.60;;;7.43;;
1026;SDS011;502;48.746;9.214;2023-02-28T08:51:50;8.13;;;5.83;;
1026;SDS011;502;48.746;9.214;2023-02-28T08:54:16;10.60;;;7.80;;
1026;SDS011;502;48.746;9.214;2023-02-28T08:56:44;10.60;;;7.43;;
1026;SDS011;502;48.746;9.214;2023-02-28T08:59:11;9.67;;;7.07;;
1026;SDS011;502;48.746;9.214;2023-02-28T09:01:39;11.00;;;6.93;;
1026;SDS011;502;48.746;9.214;2023-02-28T09:04:08;9.93;;;6.83;;
1026;SDS011;502;48.746;9.214;2023-02-28T09:06:36;9.80;;;7.17;;
1026;SDS011;502;48.746;9.214;2023-02-28T09:09:03;9.50;;;7.53;;
1026;SDS011;502;48.746;9.214;2023-02-28T09:11:31;11.00;;;6.60;;
1026;SDS011;502;48.746;9.214;2023-02-28T09:13:58;8.97;;;6.27;;
1026;SDS011;502;48.746;9.214;2023-02-28T09:16:26;9.90;;;7.80;;
1026;SDS011;502;48.746;9.214;2023-02-28T09:18:54;12.63;;;8.03;;
1026;SDS011;502;48.746;9.214;2023-02-28T09:21:20;12.27;;;7.40;;
1026;SDS011;502;48.746;9.214;2023-02-28T09:23:48;14.10;;;8.20;;
1026;SDS011;502;48.746;9.214;2023-02-28T09:26:15;12.63;;;8.13;;
1026;SDS011;502;48.746;9.214;2023-02-28T09:28:44;12.17;;;7.87;;
1026;SDS011;502;48.746;9.214;2023-02-28T09:31:11;10.57;;;7.30;;
1026;SDS011;502;48.746;9.214;2023-02-28T09:33:40;11.90;;;7.83;;
1026;SDS011;502;48.746;9.214;2023-02-28T09:36:08;11.80;;;7.30;;
1026;SDS011;502;48.746;9.214;2023-02-28T09:38:35;13.20;;;9.07;;
1026;SDS011;502;48.746;9.214;2023-02-28T09:41:03;9.77;;;6.80;;
1026;SDS011;502;48.746;9.214;2023-02-28T09:43:35;13.40;;;7.93;;
1026;SDS011;502;48.746;9.214;2023-02-28T09:46:05;12.53;;;8.17;;
1026;SDS011;502;48.746;9.214;2023-02-28T09:48:39;11.17;;;7.27;;
1026;SDS011;502;48.746;9.214;2023-02-28T09:51:12;13.90;;;7.23;;
1026;SDS011;502;48.746;9.214;2023-02-28T09:53:42;12.90;;;8.57;;
1026;SDS011;502;48.746;9.214;2023-02-28T09:56:09;9.23;;;7.40;;
1026;SDS011;502;48.746;9.214;2023-02-28T09:58:39;11.20;;;8.07;;
1026;SDS011;502;48.746;9.214;2023-02-28T10:01:09;12.57;;;8.30;;
1026;SDS011;502;48.746;9.214;2023-02-28T10:03:39;13.20;;;8.90;;
1026;SDS011;502;48.746;9.214;2023-02-28T10:06:08;9.73;;;7.07;;
1026;SDS011;502;48.746;9.214;2023-02-28T10:08:42;10.57;;;6.50;;
1026;SDS011;502;48.746;9.214;2023-02-28T10:11:12;13.40;;;8.67;;
1026;SDS011;502;48.746;9.214;2023-02-28T10:13:46;11.73;;;7.43;;
1026;SDS011;502;48.746;9.214;2023-02-28T10:16:20;9.37;;;6.80;;
1026;SDS011;502;48.746;9.214;2023-02-28T10:18:51;12.80;;;8.70;;
1026;SDS011;502;48.746;9.214;2023-02-28T10:21:27;10.50;;;7.60;;
1026;SDS011;502;48.746;9.214;2023-02-28T10:23:58;8.90;;;6.73;;
1026;SDS011;502;48.746;9.214;2023-02-28T10:26:28;10.70;;;8.10;;
1026;SDS011;502;48.746;9.214;2023-02-28T10:28:57;12.10;;;8.10;;
1026;SDS011;502;48.746;9.214;2023-02-28T10:31:24;12.00;;;8.93;;
1026;SDS011;502;48.746;9.214;2023-02-28T10:33:51;13.07;;;8.83;;
1026;SDS011;502;48.746;9.214;2023-02-28T10:36:18;11.43;;;8.07;;
1026;SDS011;502;48.746;9.214;2023-02-28T10:38:47;12.27;;;9.03;;
1026;SDS011;502;48.746;9.214;2023-02-28T10:41:16;10.83;;;8.30;;
1026;SDS011;502;48.746;9.214;2023-02-28T10:43:52;10.93;;;7.03;;
1026;SDS011;502;48.746;9.214;2023-02-28T10:46:19;10.73;;;8.10;;
1026;SDS011;502;48.746;9.214;2023-02-28T10:48:57;12.53;;;9.03;;
1026;SDS011;502;48.746;9.214;2023-02-28T10:51:27;10.43;;;7.40;;
1026;SDS011;502;48.746;9.214;2023-02-28T10:54:03;11.77;;;9.27;;
1026;SDS011;502;48.746;9.214;2023-02-28T10:56:30;11.30;;;8.67;;
1026;SDS011;502;48.746;9.214;2023-02-28T10:58:59;10.87;;;7.93;;
1026;SDS011;502;48.746;9.214;2023-02-28T11:01:34;11.70;;;8.97;;
1026;SDS011;502;48.746;9.214;2023-02-28T11:04:03;16.03;;;9.90;;
1026;SDS011;502;48.746;9.214;2023-02-28T11:06:43;13.73;;;9.73;;
1026;SDS011;502;48.746;9.214;2023-02-28T11:09:16;11.97;;;8.87;;
1026;SDS011;502;48.746;9.214;2023-02-28T11:11:46;9.87;;;7.20;;
1026;SDS011;502;48.746;9.214;2023-02-28T11:14:16;12.23;;;9.37;;
1026;SDS011;502;48.746;9.214;2023-02-28T11:16:45;14.80;;;8.40;;
1026;SDS011;502;48.746;9.214;2023-02-28T11:19:16;11.83;;;8.17;;
1026;SDS011;502;48.746;9.214;2023-02-28T11:21:47;10.90;;;7.40;;
1026;SDS011;502;48.746;9.214;2023-02-28T11:24:19;10.77;;;8.00;;
1026;SDS011;502;48.746;9.214;2023-02-28T11:26:49;13.47;;;9.80;;
1026;SDS011;502;48.746;9.214;2023-02-28T11:29:20;12.87;;;8.03;;
1026;SDS011;502;48.746;9.214;2023-02-28T11:32:04;11.03;;;9.03;;
1026;SDS011;502;48.746;9.214;2023-02-28T11:34:36;14.90;;;9.93;;
1026;SDS011;502;48.746;9.214;2023-02-28T11:37:04;14.00;;;9.43;;
1026;SDS011;502;48.746;9.214;2023-02-28T11:39:36;13.43;;;8.90;;
1026;SDS011;502;48.746;9.214;2023-02-28T11:42:06;12.23;;;8.73;;
1026;SDS011;502;48.746;9.214;2023-02-28T11:44:43;11.93;;;8.87;;
1026;SDS011;502;48.746;9.214;2023-02-28T11:47:21;10.13;;;8.17;;
1026;SDS011;502;48.746;9.214;2023-02-28T11:49:56;12.20;;;8.87;;
1026;SDS011;502;48.746;9.214;2023-02-28T11:52:42;13.03;;;9.23;;
1026;SDS011;502;48.746;9.214;2023-02-28T11:55:16;11.40;;;8.70;;
1026;SDS011;502;48.746;9.214;2023-02-28T11:58:00;10.83;;;8.30;;
1026;SDS011;502;48.746;9.214;2023-02-28T12:00:36;10.47;;;8.60;;
1026;SDS011;502;48.746;9.214;2023-02-28T12:03:11;12.50;;;8.93;;
1026;SDS011;502;48.746;9.214;2023-02-28T12:05:45;11.23;;;8.70;;
1026;SDS011;502;48.746;9.214;2023-02-28T12:08:18;9.90;;;7.10;;
1026;SDS011;502;48.746;9.214;2023-02-28T12:10:55;17.73;;;7.90;;
1026;SDS011;502;48.746;9.214;2023-02-28T12:13:28;12.47;;;9.67;;
1026;SDS011;502;48.746;9.214;2023-02-28T12:16:10;10.80;;;8.70;;
1026;SDS011;502;48.746;9.214;2023-02-28T12:18:56;11.17;;;8.40;;
1026;SDS011;502;48.746;9.214;2023-02-28T12:21:31;10.10;;;8.20;;
1026;SDS011;502;48.746;9.214;2023-02-28T12:24:10;11.63;;;8.90;;
1026;SDS011;502;48.746;9.214;2023-02-28T12:26:46;10.57;;;8.63;;
1026;SDS011;502;48.746;9.214;2023-02-28T12:29:16;10.83;;;9.17;;
1026;SDS011;502;48.746;9.214;2023-02-28T12:31:48;13.60;;;10.10;;
1026;SDS011;502;48.746;9.214;2023-02-28T12:34:18;12.13;;;8.20;;
1026;SDS011;502;48.746;9.214;2023-02-28T12:36:46;13.10;;;9.13;;
1026;SDS011;502;48.746;9.214;2023-02-28T12:39:15;13.37;;;8.93;;
1026;SDS011;502;48.746;9.214;2023-02-28T12:41:46;14.17;;;9.30;;
1026;SDS011;502;48.746;9.214;2023-02-28T12:44:15;11.60;;;8.90;;
1026;SDS011;502;48.746;9.214;2023-02-28T12:46:46;12.50;;;9.30;;
1026;SDS011;502;48.746;9.214;2023-02-28T12:49:19;10.10;;;8.23;;
1026;SDS011;502;48.746;9.214;2023-02-28T12:51:48;15.40;;;8.90;;
1026;SDS011;502;48.746;9.214;2023-02-28T12:54:18;10.17;;;8.20;;
1026;SDS011;502;48.746;9.214;2023-02-28T12:56:49;13.37;;;8.63;;
1026;SDS011;502;48.746;9.214;2023-02-28T12:59:23;10.73;;;7.67;;
1026;SDS011;502;48.746;9.214;2023-02-28T13:05:07;12.90;;;9.47;;
1026;SDS011;502;48.746;9.214;2023-02-28T13:07:52;11.53;;;8.70;;
1026;SDS011;502;48.746;9.214;2023-02-28T13:10:40;12.57;;;9.47;;
1026;SDS011;502;48.746;9.214;2023-02-28T13:13:15;12.10;;;8.67;;
1026;SDS011;502;48.746;9.214;2023-02-28T13:15:56;11.53;;;8.83;;
1026;SDS011;502;48.746;9.214;2023-02-28T13:18:28;13.13;;;9.33;;
1026;SDS011;502;48.746;9.214;2023-02-28T13:20:57;13.50;;;10.13;;
1026;SDS011;502;48.746;9.214;2023-02-28T13:23:56;10.27;;;8.90;;
1026;SDS011;502;48.746;9.214;2023-02-28T13:29:29;11.67;;;8.70;;
1026;SDS011;502;48.746;9.214;2023-02-28T13:38:21;11.33;;;7.80;;
1026;SDS011;502;48.746;9.214;2023-02-28T13:44:14;13.10;;;9.17;;
1026;SDS011;502;48.746;9.214;2023-02-28T13:49:50;10.70;;;7.90;;
1026;SDS011;502;48.746;9.214;2023-02-28T13:52:18;10.63;;;8.13;;
1026;SDS011;502;48.746;9.214;2023-02-28T13:54:52;11.70;;;7.83;;
1026;SDS011;502;48.746;9.214;2023-02-28T13:57:26;13.37;;;8.63;;
1026;SDS011;502;48.746;9.214;2023-02-28T14:00:02;11.40;;;7.87;;
1026;SDS011;502;48.746;9.214;2023-02-28T14:02:47;11.20;;;8.43;;
1026;SDS011;502;48.746;9.214;2023-02-28T14:05:30;13.13;;;8.67;;
1026;SDS011;502;48.746;9.214;2023-02-28T14:07:57;11.73;;;8.83;;
1026;SDS011;502;48.746;9.214;2023-02-28T14:10:26;11.43;;;8.67;;
1026;SDS011;502;48.746;9.214;2023-02-28T14:12:58;14.50;;;7.40;;
1026;SDS011;502;48.746;9.214;2023-02-28T14:18:19;13.87;;;9.80;;
1026;SDS011;502;48.746;9.214;2023-02-28T14:20:48;12.77;;;10.63;;
1026;SDS011;502;48.746;9.214;2023-02-28T14:23:21;15.83;;;11.50;;
1026;SDS011;502;48.746;9.214;2023-02-28T14:26:16;14.60;;;9.07;;
1026;SDS011;502;48.746;9.214;2023-02-28T14:28:56;11.83;;;8.77;;
1026;SDS011;502;48.746;9.214;2023-02-28T14:31:35;12.13;;;8.80;;
1026;SDS011;502;48.746;9.214;2023-02-28T14:34:14;11.77;;;9.00;;
1026;SDS011;502;48.746;9.214;2023-02-28T14:36:47;12.17;;;8.80;;
1026;SDS011;502;48.746;9.214;2023-02-28T14:39:15;11.70;;;8.80;;
1026;SDS011;502;48.746;9.214;2023-02-28T14:41:44;9.87;;;8.10;;
1026;SDS011;502;48.746;9.214;2023-02-28T14:44:14;11.30;;;7.80;;
1026;SDS011;502;48.746;9.214;2023-02-28T14:46:43;11.47;;;9.87;;
1026;SDS011;502;48.746;9.214;2023-02-28T14:49:16;9.87;;;7.43;;
1026;SDS011;502;48.746;9.214;2023-02-28T14:51:45;12.10;;;8.57;;
1026;SDS011;502;48.746;9.214;2023-02-28T14:54:13;11.90;;;9.23;;
1026;SDS011;502;48.746;9.214;2023-02-28T14:56:41;11.40;;;9.13;;
1026;SDS011;502;48.746;9.214;2023-02-28T14:59:21;12.90;;;8.40;;
1026;SDS011;502;48.746;9.214;2023-02-28T15:01:51;11.23;;;7.97;;
1026;SDS011;502;48.746;9.214;2023-02-28T15:04:22;10.07;;;7.60;;
1026;SDS011;502;48.746;9.214;2023-02-28T15:07:09;10.60;;;8.83;;
1026;SDS011;502;48.746;9.214;2023-02-28T15:09:36;10.87;;;8.50;;
1026;SDS011;502;48.746;9.214;2023-02-28T15:12:03;10.87;;;8.73;;
1026;SDS011;502;48.746;9.214;2023-02-28T15:14:30;10.40;;;8.10;;
1026;SDS011;502;48.746;9.214;2023-02-28T15:16:58;10.10;;;8.27;;
1026;SDS011;502;48.746;9.214;2023-02-28T15:19:29;10.67;;;8.57;;
1026;SDS011;502;48.746;9.214;2023-02-28T15:21:58;11.27;;;8.70;;
1026;SDS011;502;48.746;9.214;2023-02-28T15:24:30;10.90;;;7.77;;
1026;SDS011;502;48.746;9.214;2023-02-28T15:27:02;10.90;;;8.00;;
1026;SDS011;502;48.746;9.214;2023-02-28T15:29:30;11.20;;;8.50;;
1026;SDS011;502;48.746;9.214;2023-02-28T15:32:04;12.30;;;9.03;;
1026;SDS011;502;48.746;9.214;2023-02-28T15:34:35;10.83;;;8.60;;
1026;SDS011;502;48.746;9.214;2023-02-28T15:37:06;10.03;;;7.97;;
1026;SDS011;502;48.746;9.214;2023-02-28T15:39:50;10.87;;;8.40;;
1026;SDS011;502;48.746;9.214;2023-02-28T15:42:18;12.93;;;9.30;;
1026;SDS011;502;48.746;9.214;2023-02-28T15:44:46;12.70;;;9.17;;
1026;SDS011;502;48.746;9.214;2023-02-28T15:47:15;11.73;;;9.50;;
1026;SDS011;502;48.746;9.214;2023-02-28T15:49:46;12.27;;;8.60;;
1026;SDS011;502;48.746;9.214;2023-02-28T15:52:15;11.40;;;8.67;;
1026;SDS011;502;48.746;9.214;2023-02-28T15:54:43;11.47;;;8.40;;
1026;SDS011;502;48.746;9.214;2023-02-28T15:57:13;14.23;;;9.40;;
1026;SDS011;502;48.746;9.214;2023-02-28T15:59:42;12.27;;;7.93;;
1026;SDS011;502;48.746;9.214;2023-02-28T16:02:17;10.83;;;7.57;;
1026;SDS011;502;48.746;9.214;2023-02-28T16:05:16;12.10;;;8.93;;